sensor_id;sensor_type;location;lat;lon;timestamp;temperature;humidity
16060;DHT22;8134;49.552;7.632;2022-12-24T07:36:00;11.10;99.90
16060;DHT22;8134;49.552;7.632;2022-12-24T07:38:28;11.00;99.90
16060;DHT22;8134;49.552;7.632;2022-12-24T07:40:57;11.00;99.90
16060;DHT22;8134;49.552;7.632;2022-12-24T07:43:23;11.10;99.90
16060;DHT22;8134;49.552;7.632;2022-12-24T07:45:52;11.10;99.90
16060;DHT22;8134;49.552;7.632;2022-12-24T07:48:18;11.00;99.90
16060;DHT22;8134;49.552;7.632;2022-12-24T07:50:44;11.10;99.90
16060;DHT22;8134;49.552;7.632;2022-12-24T07:53:09;11.00;99.90
16060;DHT22;8134;49.552;7.632;2022-12-24T07:55:35;11.00;99.90
16060;DHT22;8134;49.552;7.632;2022-12-24T07:58:00;11.00;99.90
16060;DHT22;8134;49.552;7.632;2022-12-24T08:00:26;11.00;99.90
16060;DHT22;8134;49.552;7.632;2022-12-24T08:02:51;11.00;99.90
16060;DHT22;8134;49.552;7.632;2022-12-24T08:05:17;11.00;99.90
16060;DHT22;8134;49.552;7.632;2022-12-24T08:07:43;11.00;99.90
16060;DHT22;8134;49.552;7.632;2022-12-24T08:10:09;11.00;99.90
16060;DHT22;8134;49.552;7.632;2022-12-24T08:12:34;11.00;99.90
16060;DHT22;8134;49.552;7.632;2022-12-24T08:15:00;11.00;99.90
16060;DHT22;8134;49.552;7.632;2022-12-24T08:17:26;11.00;99.90
16060;DHT22;8134;49.552;7.632;2022-12-24T08:19:55;11.00;99.90
16060;DHT22;8134;49.552;7.632;2022-12-24T08:22:21;11.00;99.90
16060;DHT22;8134;49.552;7.632;2022-12-24T08:24:50;11.00;99.90
16060;DHT22;8134;49.552;7.632;2022-12-24T08:27:18;10.90;99.90
16060;DHT22;8134;49.552;7.632;2022-12-24T08:29:44;10.90;99.90
16060;DHT22;8134;49.552;7.632;2022-12-24T08:32:09;10.90;99.90
16060;DHT22;8134;49.552;7.632;2022-12-24T08:34:41;10.90;99.90
16060;DHT22;8134;49.552;7.632;2022-12-24T08:37:07;11.00;99.90
16060;DHT22;8134;49.552;7.632;2022-12-24T08:39:33;11.00;99.90
16060;DHT22;8134;49.552;7.632;2022-12-24T08:41:58;11.10;99.90
16060;DHT22;8134;49.552;7.632;2022-12-24T08:44:24;11.00;99.90
16060;DHT22;8134;49.552;7.632;2022-12-24T08:46:56;11.10;99.90
16060;DHT22;8134;49.552;7.632;2022-12-24T08:49:22;11.20;99.90
16060;DHT22;8134;49.552;7.632;2022-12-24T08:51:47;11.20;99.90
16060;DHT22;8134;49.552;7.632;2022-12-24T08:54:13;11.30;99.90
16060;DHT22;8134;49.552;7.632;2022-12-24T08:56:50;11.30;99.90
16060;DHT22;8134;49.552;7.632;2022-12-24T08:59:16;11.30;99.90
16060;DHT22;8134;49.552;7.632;2022-12-24T09:01:43;11.30;99.90
16060;DHT22;8134;49.552;7.632;2022-12-24T09:04:12;11.30;99.90
16060;DHT22;8134;49.552;7.632;2022-12-24T09:06:40;11.30;99.90
16060;DHT22;8134;49.552;7.632;2022-12-24T09:09:09;11.30;99.90
16060;DHT22;8134;49.552;7.632;2022-12-24T09:11:34;11.30;99.90
16060;DHT22;8134;49.552;7.632;2022-12-24T09:14:02;11.30;99.90
16060;DHT22;8134;49.552;7.632;2022-12-24T09:16:31;11.40;99.90
16060;DHT22;8134;49.552;7.632;2022-12-24T09:18:58;11.40;99.90
16060;DHT22;8134;49.552;7.632;2022-12-24T09:21:24;11.40;99.90
16060;DHT22;8134;49.552;7.632;2022-12-24T09:23:49;11.30;99.90
16060;DHT22;8134;49.552;7.632;2022-12-24T09:26:16;11.40;99.90
16060;DHT22;8134;49.552;7.632;2022-12-24T09:28:41;11.40;99.90
16060;DHT22;8134;49.552;7.632;2022-12-24T09:31:08;11.50;99.90
16060;DHT22;8134;49.552;7.632;2022-12-24T09:33:35;11.60;99.90
16060;DHT22;8134;49.552;7.632;2022-12-24T09:36:01;11.40;99.90
16060;DHT22;8134;49.552;7.632;2022-12-24T09:38:27;11.40;99.90
16060;DHT22;8134;49.552;7.632;2022-12-24T09:40:53;11.40;99.90
16060;DHT22;8134;49.552;7.632;2022-12-24T09:43:20;11.50;99.90
16060;DHT22;8134;49.552;7.632;2022-12-24T09:48:22;11.40;99.90
16060;DHT22;8134;49.552;7.632;2022-12-24T09:50:51;11.50;99.90
16060;DHT22;8134;49.552;7.632;2022-12-24T09:53:26;11.50;99.90
16060;DHT22;8134;49.552;7.632;2022-12-24T09:55:55;11.50;99.90
16060;DHT22;8134;49.552;7.632;2022-12-24T09:58:26;11.50;99.90
16060;DHT22;8134;49.552;7.632;2022-12-24T10:00:54;11.50;99.90
16060;DHT22;8134;49.552;7.632;2022-12-24T10:03:20;11.60;99.90
16060;DHT22;8134;49.552;7.632;2022-12-24T10:05:51;11.60;99.90
16060;DHT22;8134;49.552;7.632;2022-12-24T10:08:25;11.70;99.90
16060;DHT22;8134;49.552;7.632;2022-12-24T10:10:54;11.70;99.90
16060;DHT22;8134;49.552;7.632;2022-12-24T10:19:18;11.80;99.90
16060;DHT22;8134;49.552;7.632;2022-12-24T10:22:00;11.90;99.90
16060;DHT22;8134;49.552;7.632;2022-12-24T10:24:33;12.00;99.90
16060;DHT22;8134;49.552;7.632;2022-12-24T10:29:26;12.20;99.90
16060;DHT22;8134;49.552;7.632;2022-12-24T10:31:55;12.20;99.90
16060;DHT22;8134;49.552;7.632;2022-12-24T10:34:24;12.20;99.90
16060;DHT22;8134;49.552;7.632;2022-12-24T10:36:52;12.30;99.90
16060;DHT22;8134;49.552;7.632;2022-12-24T10:39:22;12.30;99.90
16060;DHT22;8134;49.552;7.632;2022-12-24T10:41:49;12.20;99.90
16060;DHT22;8134;49.552;7.632;2022-12-24T10:44:17;12.20;99.90
16060;DHT22;8134;49.552;7.632;2022-12-24T10:46:43;12.10;99.90
16060;DHT22;8134;49.552;7.632;2022-12-24T10:49:25;12.10;99.90
16060;DHT22;8134;49.552;7.632;2022-12-24T10:52:05;12.10;99.90
16060;DHT22;8134;49.552;7.632;2022-12-24T10:54:31;12.00;99.90
16060;DHT22;8134;49.552;7.632;2022-12-24T10:57:03;12.00;99.90
16060;DHT22;8134;49.552;7.632;2022-12-24T10:59:30;12.10;99.90
16060;DHT22;8134;49.552;7.632;2022-12-24T11:01:59;12.10;99.90
16060;DHT22;8134;49.552;7.632;2022-12-24T11:04:29;12.10;99.90
16060;DHT22;8134;49.552;7.632;2022-12-24T11:09:28;12.10;99.90
16060;DHT22;8134;49.552;7.632;2022-12-24T11:11:55;12.10;99.90
16060;DHT22;8134;49.552;7.632;2022-12-24T11:14:20;12.10;99.90
16060;DHT22;8134;49.552;7.632;2022-12-24T11:16:53;12.10;99.90
16060;DHT22;8134;49.552;7.632;2022-12-24T11:19:23;12.10;99.90
16060;DHT22;8134;49.552;7.632;2022-12-24T11:21:56;12.10;99.90
16060;DHT22;8134;49.552;7.632;2022-12-24T11:24:26;12.10;99.90
16060;DHT22;8134;49.552;7.632;2022-12-24T11:26:53;12.20;99.90
16060;DHT22;8134;49.552;7.632;2022-12-24T11:29:25;12.20;99.90
16060;DHT22;8134;49.552;7.632;2022-12-24T11:31:51;12.20;99.90
16060;DHT22;8134;49.552;7.632;2022-12-24T11:34:20;12.10;99.90
16060;DHT22;8134;49.552;7.632;2022-12-24T11:36:46;12.10;99.90
16060;DHT22;8134;49.552;7.632;2022-12-24T11:39:19;12.10;99.90
16060;DHT22;8134;49.552;7.632;2022-12-24T11:41:45;12.10;99.90
16060;DHT22;8134;49.552;7.632;2022-12-24T11:44:11;12.10;99.90
16060;DHT22;8134;49.552;7.632;2022-12-24T11:46:40;12.20;99.90
16060;DHT22;8134;49.552;7.632;2022-12-24T11:51:49;12.30;99.90
16060;DHT22;8134;49.552;7.632;2022-12-24T11:54:23;12.30;99.90
16060;DHT22;8134;49.552;7.632;2022-12-24T11:56:54;12.40;99.90
16060;DHT22;8134;49.552;7.632;2022-12-24T11:59:23;12.40;99.90
16060;DHT22;8134;49.552;7.632;2022-12-24T12:01:55;12.50;99.90
16060;DHT22;8134;49.552;7.632;2022-12-24T12:04:23;12.60;99.90
16060;DHT22;8134;49.552;7.632;2022-12-24T12:06:51;12.70;99.90
16060;DHT22;8134;49.552;7.632;2022-12-24T12:09:21;12.70;99.90
16060;DHT22;8134;49.552;7.632;2022-12-24T12:11:52;12.60;99.90
16060;DHT22;8134;49.552;7.632;2022-12-24T12:14:29;12.50;99.90
16060;DHT22;8134;49.552;7.632;2022-12-24T12:19:25;12.40;99.90
16060;DHT22;8134;49.552;7.632;2022-12-24T12:21:52;12.30;99.90
16060;DHT22;8134;49.552;7.632;2022-12-24T12:24:28;12.30;99.90
16060;DHT22;8134;49.552;7.632;2022-12-24T12:27:10;12.30;99.90
16060;DHT22;8134;49.552;7.632;2022-12-24T12:29:41;12.30;99.90
16060;DHT22;8134;49.552;7.632;2022-12-24T12:32:13;12.30;99.90
16060;DHT22;8134;49.552;7.632;2022-12-24T12:35:04;12.40;99.90
16060;DHT22;8134;49.552;7.632;2022-12-24T12:37:28;12.40;99.90
16060;DHT22;8134;49.552;7.632;2022-12-24T12:39:54;12.40;99.90
16060;DHT22;8134;49.552;7.632;2022-12-24T12:42:42;12.50;99.90
16060;DHT22;8134;49.552;7.632;2022-12-24T12:50:37;12.30;99.90
16060;DHT22;8134;49.552;7.632;2022-12-24T12:58:10;12.30;99.90
16060;DHT22;8134;49.552;7.632;2022-12-24T13:00:37;12.30;99.90
16060;DHT22;8134;49.552;7.632;2022-12-24T13:03:11;12.30;99.90
16060;DHT22;8134;49.552;7.632;2022-12-24T13:05:56;12.30;99.90
16060;DHT22;8134;49.552;7.632;2022-12-24T13:13:32;12.20;99.90
16060;DHT22;8134;49.552;7.632;2022-12-24T13:21:24;12.30;99.90
16060;DHT22;8134;49.552;7.632;2022-12-24T13:23:50;12.30;99.90
16060;DHT22;8134;49.552;7.632;2022-12-24T13:26:28;12.30;99.90
16060;DHT22;8134;49.552;7.632;2022-12-24T13:28:54;12.40;99.90
16060;DHT22;8134;49.552;7.632;2022-12-24T13:33:46;12.40;99.90
16060;DHT22;8134;49.552;7.632;2022-12-24T13:36:12;12.40;99.90
16060;DHT22;8134;49.552;7.632;2022-12-24T13:38:53;12.30;99.90
16060;DHT22;8134;49.552;7.632;2022-12-24T13:49:16;12.20;99.90
16060;DHT22;8134;49.552;7.632;2022-12-24T13:51:43;12.10;99.90
16060;DHT22;8134;49.552;7.632;2022-12-24T13:54:10;12.10;99.90
16060;DHT22;8134;49.552;7.632;2022-12-24T13:56:37;12.10;99.90
16060;DHT22;8134;49.552;7.632;2022-12-24T13:59:36;12.00;99.90
16060;DHT22;8134;49.552;7.632;2022-12-24T14:01:55;11.90;99.90
16060;DHT22;8134;49.552;7.632;2022-12-24T14:04:22;12.00;99.90
16060;DHT22;8134;49.552;7.632;2022-12-24T14:06:49;11.90;99.90
16060;DHT22;8134;49.552;7.632;2022-12-24T14:09:17;12.00;99.90
16060;DHT22;8134;49.552;7.632;2022-12-24T14:16:54;11.90;99.90
16060;DHT22;8134;49.552;7.632;2022-12-24T14:19:22;11.90;99.90
16060;DHT22;8134;49.552;7.632;2022-12-24T14:21:55;11.90;99.90
16060;DHT22;8134;49.552;7.632;2022-12-24T14:24:23;11.90;99.90
16060;DHT22;8134;49.552;7.632;2022-12-24T14:26:53;11.90;99.90
16060;DHT22;8134;49.552;7.632;2022-12-24T14:29:28;11.90;99.90
16060;DHT22;8134;49.552;7.632;2022-12-24T14:31:56;11.90;99.90
16060;DHT22;8134;49.552;7.632;2022-12-24T14:34:23;11.90;99.90
16060;DHT22;8134;49.552;7.632;2022-12-24T14:36:50;11.90;99.90
16060;DHT22;8134;49.552;7.632;2022-12-24T14:39:30;11.80;99.90
16060;DHT22;8134;49.552;7.632;2022-12-24T14:44:38;11.70;99.90
16060;DHT22;8134;49.552;7.632;2022-12-24T14:47:07;11.70;99.90
16060;DHT22;8134;49.552;7.632;2022-12-24T14:52:43;11.30;99.90
16060;DHT22;8134;49.552;7.632;2022-12-24T14:55:26;11.20;99.90
16060;DHT22;8134;49.552;7.632;2022-12-24T14:58:12;11.20;99.90
16060;DHT22;8134;49.552;7.632;2022-12-24T15:00:37;11.40;99.90
16060;DHT22;8134;49.552;7.632;2022-12-24T15:03:10;11.40;99.90
16060;DHT22;8134;49.552;7.632;2022-12-24T15:05:36;11.40;99.90
16060;DHT22;8134;49.552;7.632;2022-12-24T15:08:03;11.40;99.90
16060;DHT22;8134;49.552;7.632;2022-12-24T15:10:36;11.40;99.90
16060;DHT22;8134;49.552;7.632;2022-12-24T15:13:03;11.40;99.90
16060;DHT22;8134;49.552;7.632;2022-12-24T15:15:29;11.40;99.90
16060;DHT22;8134;49.552;7.632;2022-12-24T15:17:55;11.40;99.90
16060;DHT22;8134;49.552;7.632;2022-12-24T15:20:23;11.50;99.90
16060;DHT22;8134;49.552;7.632;2022-12-24T15:22:50;11.50;99.90
16060;DHT22;8134;49.552;7.632;2022-12-24T15:25:17;11.60;99.90
16060;DHT22;8134;49.552;7.632;2022-12-24T15:27:43;11.50;99.90
16060;DHT22;8134;49.552;7.632;2022-12-24T15:30:17;11.40;99.90
16060;DHT22;8134;49.552;7.632;2022-12-24T15:32:42;11.30;99.90
16060;DHT22;8134;49.552;7.632;2022-12-24T15:37:52;11.10;99.90
16060;DHT22;8134;49.552;7.632;2022-12-24T15:40:18;11.00;99.90
16060;DHT22;8134;49.552;7.632;2022-12-24T15:42:44;11.10;99.90
16060;DHT22;8134;49.552;7.632;2022-12-24T15:45:15;11.00;99.90
16060;DHT22;8134;49.552;7.632;2022-12-24T15:47:51;11.00;99.90
16060;DHT22;8134;49.552;7.632;2022-12-24T15:50:20;11.00;99.90
16060;DHT22;8134;49.552;7.632;2022-12-24T15:52:47;11.00;99.90
16060;DHT22;8134;49.552;7.632;2022-12-24T15:58:20;11.00;99.90
16060;DHT22;8134;49.552;7.632;2022-12-24T16:03:31;11.10;99.90
16060;DHT22;8134;49.552;7.632;2022-12-24T16:05:58;11.00;99.90
16060;DHT22;8134;49.552;7.632;2022-12-24T16:08:25;11.00;99.90
16060;DHT22;8134;49.552;7.632;2022-12-24T16:10:52;10.90;99.90
16060;DHT22;8134;49.552;7.632;2022-12-24T16:13:21;10.80;99.90
16060;DHT22;8134;49.552;7.632;2022-12-24T16:15:52;10.80;99.90
16060;DHT22;8134;49.552;7.632;2022-12-24T16:18:21;10.80;99.90
16060;DHT22;8134;49.552;7.632;2022-12-24T16:20:48;10.80;99.90
16060;DHT22;8134;49.552;7.632;2022-12-24T16:23:21;10.90;99.90
16060;DHT22;8134;49.552;7.632;2022-12-24T16:25:47;10.80;99.90
16060;DHT22;8134;49.552;7.632;2022-12-24T16:28:13;10.80;99.90
16060;DHT22;8134;49.552;7.632;2022-12-24T16:30:39;10.80;99.90
16060;DHT22;8134;49.552;7.632;2022-12-24T16:33:04;10.80;99.90
16060;DHT22;8134;49.552;7.632;2022-12-24T16:35:31;10.90;99.90
16060;DHT22;8134;49.552;7.632;2022-12-24T16:38:01;10.80;99.90
16060;DHT22;8134;49.552;7.632;2022-12-24T16:40:26;10.80;99.90
16060;DHT22;8134;49.552;7.632;2022-12-24T16:42:52;10.70;99.90
16060;DHT22;8134;49.552;7.632;2022-12-24T16:45:36;10.80;99.90
16060;DHT22;8134;49.552;7.632;2022-12-24T16:48:02;10.60;99.90
16060;DHT22;8134;49.552;7.632;2022-12-24T16:50:30;10.60;99.90
16060;DHT22;8134;49.552;7.632;2022-12-24T16:52:55;10.60;99.90
16060;DHT22;8134;49.552;7.632;2022-12-24T16:55:20;10.60;99.90
16060;DHT22;8134;49.552;7.632;2022-12-24T16:57:46;10.50;99.90
16060;DHT22;8134;49.552;7.632;2022-12-24T17:00:16;10.40;99.90
16060;DHT22;8134;49.552;7.632;2022-12-24T17:02:42;10.40;99.90
16060;DHT22;8134;49.552;7.632;2022-12-24T17:05:08;10.40;99.90
16060;DHT22;8134;49.552;7.632;2022-12-24T17:07:34;10.40;99.90
16060;DHT22;8134;49.552;7.632;2022-12-24T17:09:59;10.40;99.90
16060;DHT22;8134;49.552;7.632;2022-12-24T17:12:25;10.50;99.90
16060;DHT22;8134;49.552;7.632;2022-12-24T17:14:50;10.50;99.90
16060;DHT22;8134;49.552;7.632;2022-12-24T17:17:26;10.60;99.90
16060;DHT22;8134;49.552;7.632;2022-12-24T17:19:52;10.50;99.90
16060;DHT22;8134;49.552;7.632;2022-12-24T17:22:17;10.50;99.90
16060;DHT22;8134;49.552;7.632;2022-12-24T17:24:44;10.50;99.90
16060;DHT22;8134;49.552;7.632;2022-12-24T17:27:10;10.50;99.90
16060;DHT22;8134;49.552;7.632;2022-12-24T17:29:35;10.50;99.90
16060;DHT22;8134;49.552;7.632;2022-12-24T17:32:01;10.40;99.90
16060;DHT22;8134;49.552;7.632;2022-12-24T17:34:26;10.30;99.90
16060;DHT22;8134;49.552;7.632;2022-12-24T17:36:52;10.30;99.90
16060;DHT22;8134;49.552;7.632;2022-12-24T17:39:17;10.30;99.90
16060;DHT22;8134;49.552;7.632;2022-12-24T17:41:43;10.30;99.90
16060;DHT22;8134;49.552;7.632;2022-12-24T17:44:11;10.30;99.90
16060;DHT22;8134;49.552;7.632;2022-12-24T17:46:36;10.30;99.90
16060;DHT22;8134;49.552;7.632;2022-12-24T17:49:02;10.30;99.90
16060;DHT22;8134;49.552;7.632;2022-12-24T17:51:27;10.30;99.90
16060;DHT22;8134;49.552;7.632;2022-12-24T17:53:55;10.30;99.90
16060;DHT22;8134;49.552;7.632;2022-12-24T17:56:20;10.40;99.90
16060;DHT22;8134;49.552;7.632;2022-12-24T17:58:46;10.30;99.90
16060;DHT22;8134;49.552;7.632;2022-12-24T18:01:12;10.30;99.90
16060;DHT22;8134;49.552;7.632;2022-12-24T18:03:38;10.40;99.90
16060;DHT22;8134;49.552;7.632;2022-12-24T18:06:04;10.40;99.90
16060;DHT22;8134;49.552;7.632;2022-12-24T18:08:30;10.40;99.90
16060;DHT22;8134;49.552;7.632;2022-12-24T18:10:55;10.40;99.90
16060;DHT22;8134;49.552;7.632;2022-12-24T18:13:21;10.40;99.90
16060;DHT22;8134;49.552;7.632;2022-12-24T18:15:47;10.30;99.90
16060;DHT22;8134;49.552;7.632;2022-12-24T18:18:13;10.30;99.90
16060;DHT22;8134;49.552;7.632;2022-12-24T18:20:38;10.30;99.90
16060;DHT22;8134;49.552;7.632;2022-12-24T18:23:04;10.40;99.90
16060;DHT22;8134;49.552;7.632;2022-12-24T18:25:29;10.40;99.90
16060;DHT22;8134;49.552;7.632;2022-12-24T18:27:55;10.40;99.90
16060;DHT22;8134;49.552;7.632;2022-12-24T18:30:20;10.50;99.90
16060;DHT22;8134;49.552;7.632;2022-12-24T18:32:46;10.50;99.90
16060;DHT22;8134;49.552;7.632;2022-12-24T18:35:12;10.50;99.90
16060;DHT22;8134;49.552;7.632;2022-12-24T18:37:37;10.40;99.90
16060;DHT22;8134;49.552;7.632;2022-12-24T18:40:03;10.40;99.90
16060;DHT22;8134;49.552;7.632;2022-12-24T18:42:29;10.40;99.90
16060;DHT22;8134;49.552;7.632;2022-12-24T18:44:54;10.40;99.90
16060;DHT22;8134;49.552;7.632;2022-12-24T18:47:20;10.50;99.90
16060;DHT22;8134;49.552;7.632;2022-12-24T18:49:45;10.40;99.90
16060;DHT22;8134;49.552;7.632;2022-12-24T18:52:11;10.50;99.90
16060;DHT22;8134;49.552;7.632;2022-12-24T18:54:37;10.50;99.90
16060;DHT22;8134;49.552;7.632;2022-12-24T18:57:02;10.50;99.90
16060;DHT22;8134;49.552;7.632;2022-12-24T18:59:28;10.40;99.90
16060;DHT22;8134;49.552;7.632;2022-12-24T19:01:54;10.40;99.90
16060;DHT22;8134;49.552;7.632;2022-12-24T19:04:19;10.40;99.90
16060;DHT22;8134;49.552;7.632;2022-12-24T19:06:45;10.40;99.90
16060;DHT22;8134;49.552;7.632;2022-12-24T19:09:10;10.50;99.90
16060;DHT22;8134;49.552;7.632;2022-12-24T19:11:36;10.50;99.90
16060;DHT22;8134;49.552;7.632;2022-12-24T19:14:02;10.40;99.90
16060;DHT22;8134;49.552;7.632;2022-12-24T19:16:29;10.30;99.90
16060;DHT22;8134;49.552;7.632;2022-12-24T19:18:54;10.40;99.90
16060;DHT22;8134;49.552;7.632;2022-12-24T19:21:20;10.40;99.90
16060;DHT22;8134;49.552;7.632;2022-12-24T19:23:46;10.40;99.90
16060;DHT22;8134;49.552;7.632;2022-12-24T19:26:12;10.40;99.90
16060;DHT22;8134;49.552;7.632;2022-12-24T19:28:38;10.40;99.90
16060;DHT22;8134;49.552;7.632;2022-12-24T19:31:08;10.30;99.90
16060;DHT22;8134;49.552;7.632;2022-12-24T19:33:38;10.30;99.90
16060;DHT22;8134;49.552;7.632;2022-12-24T19:36:04;10.40;99.90
16060;DHT22;8134;49.552;7.632;2022-12-24T19:38:30;10.40;99.90
16060;DHT22;8134;49.552;7.632;2022-12-24T19:40:55;10.40;99.90
16060;DHT22;8134;49.552;7.632;2022-12-24T19:43:21;10.40;99.90
16060;DHT22;8134;49.552;7.632;2022-12-24T19:45:46;10.40;99.90
16060;DHT22;8134;49.552;7.632;2022-12-24T19:48:12;10.30;99.90
16060;DHT22;8134;49.552;7.632;2022-12-24T19:50:37;10.30;99.90
16060;DHT22;8134;49.552;7.632;2022-12-24T19:53:03;10.20;99.90
16060;DHT22;8134;49.552;7.632;2022-12-24T19:55:28;10.10;99.90
16060;DHT22;8134;49.552;7.632;2022-12-24T19:57:54;10.10;99.90
16060;DHT22;8134;49.552;7.632;2022-12-24T20:00:19;10.00;99.90
16060;DHT22;8134;49.552;7.632;2022-12-24T20:02:45;10.00;99.90
16060;DHT22;8134;49.552;7.632;2022-12-24T20:05:10;9.90;99.90
16060;DHT22;8134;49.552;7.632;2022-12-24T20:07:36;10.00;99.90
16060;DHT22;8134;49.552;7.632;2022-12-24T20:10:01;10.00;99.90
16060;DHT22;8134;49.552;7.632;2022-12-24T20:12:27;10.00;99.90
16060;DHT22;8134;49.552;7.632;2022-12-24T20:14:55;10.00;99.90
16060;DHT22;8134;49.552;7.632;2022-12-24T20:17:21;10.00;99.90
16060;DHT22;8134;49.552;7.632;2022-12-24T20:19:47;10.00;99.90
16060;DHT22;8134;49.552;7.632;2022-12-24T20:22:12;10.10;99.90
16060;DHT22;8134;49.552;7.632;2022-12-24T20:24:38;10.10;99.90
16060;DHT22;8134;49.552;7.632;2022-12-24T20:27:04;10.10;99.90
16060;DHT22;8134;49.552;7.632;2022-12-24T20:29:30;10.10;99.90
16060;DHT22;8134;49.552;7.632;2022-12-24T20:31:55;10.20;99.90
16060;DHT22;8134;49.552;7.632;2022-12-24T20:34:20;10.20;99.90
16060;DHT22;8134;49.552;7.632;2022-12-24T20:36:46;10.10;99.90
16060;DHT22;8134;49.552;7.632;2022-12-24T20:39:11;10.00;99.90
16060;DHT22;8134;49.552;7.632;2022-12-24T20:41:37;10.10;99.90
16060;DHT22;8134;49.552;7.632;2022-12-24T20:44:03;10.10;99.90
16060;DHT22;8134;49.552;7.632;2022-12-24T20:46:28;10.00;99.90
16060;DHT22;8134;49.552;7.632;2022-12-24T20:48:55;10.00;99.90
16060;DHT22;8134;49.552;7.632;2022-12-24T20:51:22;10.00;99.90
16060;DHT22;8134;49.552;7.632;2022-12-24T20:53:48;9.90;99.90
16060;DHT22;8134;49.552;7.632;2022-12-24T20:56:17;9.90;99.90
16060;DHT22;8134;49.552;7.632;2022-12-24T20:58:42;10.00;99.90
16060;DHT22;8134;49.552;7.632;2022-12-24T21:01:10;10.00;99.90
16060;DHT22;8134;49.552;7.632;2022-12-24T21:03:36;10.00;99.90
16060;DHT22;8134;49.552;7.632;2022-12-24T21:06:01;10.10;99.90
16060;DHT22;8134;49.552;7.632;2022-12-24T21:08:27;10.10;99.90
16060;DHT22;8134;49.552;7.632;2022-12-24T21:10:52;10.10;99.90
16060;DHT22;8134;49.552;7.632;2022-12-24T21:13:38;10.10;99.90
16060;DHT22;8134;49.552;7.632;2022-12-24T21:16:03;10.00;99.90
16060;DHT22;8134;49.552;7.632;2022-12-24T21:18:29;10.00;99.90
16060;DHT22;8134;49.552;7.632;2022-12-24T21:20:54;10.20;99.90
16060;DHT22;8134;49.552;7.632;2022-12-24T21:23:20;10.00;99.90
16060;DHT22;8134;49.552;7.632;2022-12-24T21:25:55;10.10;99.90
16060;DHT22;8134;49.552;7.632;2022-12-24T21:28:20;10.10;99.90
16060;DHT22;8134;49.552;7.632;2022-12-24T21:30:46;10.10;99.90
16060;DHT22;8134;49.552;7.632;2022-12-24T21:33:11;10.20;99.90
16060;DHT22;8134;49.552;7.632;2022-12-24T21:35:37;10.20;99.90
16060;DHT22;8134;49.552;7.632;2022-12-24T21:38:02;10.30;99.90
16060;DHT22;8134;49.552;7.632;2022-12-24T21:40:28;10.20;99.90
16060;DHT22;8134;49.552;7.632;2022-12-24T21:42:53;10.30;99.90
16060;DHT22;8134;49.552;7.632;2022-12-24T21:45:19;10.20;99.90
16060;DHT22;8134;49.552;7.632;2022-12-24T21:47:44;10.10;99.90
16060;DHT22;8134;49.552;7.632;2022-12-24T21:50:10;10.10;99.90
16060;DHT22;8134;49.552;7.632;2022-12-24T21:52:54;10.10;99.90
16060;DHT22;8134;49.552;7.632;2022-12-24T21:55:39;10.10;99.90
16060;DHT22;8134;49.552;7.632;2022-12-24T21:58:05;10.10;99.90
16060;DHT22;8134;49.552;7.632;2022-12-24T22:00:30;10.10;99.90
16060;DHT22;8134;49.552;7.632;2022-12-24T22:02:57;10.00;99.90
16060;DHT22;8134;49.552;7.632;2022-12-24T22:05:23;9.90;99.90
16060;DHT22;8134;49.552;7.632;2022-12-24T22:07:49;9.90;99.90
16060;DHT22;8134;49.552;7.632;2022-12-24T22:10:33;10.00;99.90
16060;DHT22;8134;49.552;7.632;2022-12-24T22:13:17;10.00;99.90
16060;DHT22;8134;49.552;7.632;2022-12-24T22:15:44;10.00;99.90
16060;DHT22;8134;49.552;7.632;2022-12-24T22:18:10;10.00;99.90
16060;DHT22;8134;49.552;7.632;2022-12-24T22:20:36;10.00;99.90
16060;DHT22;8134;49.552;7.632;2022-12-24T22:23:02;10.00;99.90
16060;DHT22;8134;49.552;7.632;2022-12-24T22:25:28;10.10;99.90
16060;DHT22;8134;49.552;7.632;2022-12-24T22:27:53;10.10;99.90
16060;DHT22;8134;49.552;7.632;2022-12-24T22:30:19;10.00;99.90
16060;DHT22;8134;49.552;7.632;2022-12-24T22:32:44;10.00;99.90
16060;DHT22;8134;49.552;7.632;2022-12-24T22:35:10;10.00;99.90
16060;DHT22;8134;49.552;7.632;2022-12-24T22:37:36;9.90;99.90
16060;DHT22;8134;49.552;7.632;2022-12-24T22:40:01;9.90;99.90
16060;DHT22;8134;49.552;7.632;2022-12-24T22:42:27;10.00;99.90
16060;DHT22;8134;49.552;7.632;2022-12-24T22:44:54;9.90;99.90
16060;DHT22;8134;49.552;7.632;2022-12-24T22:47:20;9.90;99.90
16060;DHT22;8134;49.552;7.632;2022-12-24T22:49:46;9.90;99.90
16060;DHT22;8134;49.552;7.632;2022-12-24T22:52:11;9.90;99.90
16060;DHT22;8134;49.552;7.632;2022-12-24T22:54:37;9.80;99.90
16060;DHT22;8134;49.552;7.632;2022-12-24T22:57:02;9.70;99.90
16060;DHT22;8134;49.552;7.632;2022-12-24T22:59:28;9.80;99.90
16060;DHT22;8134;49.552;7.632;2022-12-24T23:01:53;9.70;99.90
16060;DHT22;8134;49.552;7.632;2022-12-24T23:04:20;9.60;99.90
16060;DHT22;8134;49.552;7.632;2022-12-24T23:06:45;9.70;99.90
16060;DHT22;8134;49.552;7.632;2022-12-24T23:09:12;9.70;99.90
16060;DHT22;8134;49.552;7.632;2022-12-24T23:11:38;9.60;99.90
16060;DHT22;8134;49.552;7.632;2022-12-24T23:14:04;9.70;99.90
16060;DHT22;8134;49.552;7.632;2022-12-24T23:16:48;9.60;99.90
16060;DHT22;8134;49.552;7.632;2022-12-24T23:19:14;9.60;99.90
16060;DHT22;8134;49.552;7.632;2022-12-24T23:21:39;9.60;99.90
16060;DHT22;8134;49.552;7.632;2022-12-24T23:24:06;9.70;99.90
16060;DHT22;8134;49.552;7.632;2022-12-24T23:26:32;9.70;99.90
16060;DHT22;8134;49.552;7.632;2022-12-24T23:28:58;9.70;99.90
16060;DHT22;8134;49.552;7.632;2022-12-24T23:31:23;9.80;99.90
16060;DHT22;8134;49.552;7.632;2022-12-24T23:33:49;9.80;99.90
16060;DHT22;8134;49.552;7.632;2022-12-24T23:36:15;9.80;99.90
16060;DHT22;8134;49.552;7.632;2022-12-24T23:38:41;9.80;99.90
16060;DHT22;8134;49.552;7.632;2022-12-24T23:41:07;9.90;99.90
16060;DHT22;8134;49.552;7.632;2022-12-24T23:43:33;9.90;99.90
16060;DHT22;8134;49.552;7.632;2022-12-24T23:45:59;9.90;99.90
16060;DHT22;8134;49.552;7.632;2022-12-24T23:48:24;9.90;99.90
16060;DHT22;8134;49.552;7.632;2022-12-24T23:50:50;9.90;99.90
16060;DHT22;8134;49.552;7.632;2022-12-24T23:53:16;9.90;99.90
16060;DHT22;8134;49.552;7.632;2022-12-24T23:55:42;9.90;99.90
16060;DHT22;8134;49.552;7.632;2022-12-24T23:58:09;9.80;99.90
